sensor_id;sensor_type;location;lat;lon;timestamp;P1;durP1;ratioP1;P2;durP2;ratioP2
22223;SDS011;11281;52.194;21.006;2023-08-20T00:01:04;19.63;;;12.60;;
22223;SDS011;11281;52.194;21.006;2023-08-20T00:05:06;17.38;;;11.77;;
22223;SDS011;11281;52.194;21.006;2023-08-20T00:09:08;15.35;;;11.25;;
22223;SDS011;11281;52.194;21.006;2023-08-20T00:13:10;22.77;;;12.00;;
22223;SDS011;11281;52.194;21.006;2023-08-20T00:17:12;14.52;;;11.93;;
22223;SDS011;11281;52.194;21.006;2023-08-20T00:21:14;15.48;;;10.75;;
22223;SDS011;11281;52.194;21.006;2023-08-20T00:25:16;15.15;;;10.48;;
22223;SDS011;11281;52.194;21.006;2023-08-20T00:29:18;13.40;;;10.73;;
22223;SDS011;11281;52.194;21.006;2023-08-20T00:33:20;18.63;;;10.98;;
22223;SDS011;11281;52.194;21.006;2023-08-20T00:37:21;13.60;;;10.23;;
22223;SDS011;11281;52.194;21.006;2023-08-20T00:41:23;12.63;;;9.55;;
22223;SDS011;11281;52.194;21.006;2023-08-20T00:45:26;16.67;;;10.23;;
22223;SDS011;11281;52.194;21.006;2023-08-20T00:49:29;14.63;;;10.63;;
22223;SDS011;11281;52.194;21.006;2023-08-20T00:53:32;18.05;;;11.30;;
22223;SDS011;11281;52.194;21.006;2023-08-20T00:57:34;14.07;;;10.90;;
22223;SDS011;11281;52.194;21.006;2023-08-20T01:01:37;16.20;;;11.40;;
22223;SDS011;11281;52.194;21.006;2023-08-20T01:05:48;16.83;;;9.90;;
22223;SDS011;11281;52.194;21.006;2023-08-20T01:14:16;15.75;;;10.70;;
22223;SDS011;11281;52.194;21.006;2023-08-20T01:18:18;18.05;;;11.60;;
22223;SDS011;11281;52.194;21.006;2023-08-20T01:31:02;13.97;;;10.90;;
22223;SDS011;11281;52.194;21.006;2023-08-20T01:35:04;16.98;;;11.45;;
22223;SDS011;11281;52.194;21.006;2023-08-20T01:39:07;17.08;;;11.55;;
22223;SDS011;11281;52.194;21.006;2023-08-20T01:43:08;15.73;;;10.32;;
22223;SDS011;11281;52.194;21.006;2023-08-20T01:47:10;16.38;;;10.32;;
22223;SDS011;11281;52.194;21.006;2023-08-20T01:51:11;14.25;;;10.23;;
22223;SDS011;11281;52.194;21.006;2023-08-20T01:55:13;16.02;;;10.50;;
22223;SDS011;11281;52.194;21.006;2023-08-20T01:59:15;13.88;;;10.60;;
22223;SDS011;11281;52.194;21.006;2023-08-20T02:03:17;14.15;;;10.38;;
22223;SDS011;11281;52.194;21.006;2023-08-20T02:07:18;14.73;;;11.05;;
22223;SDS011;11281;52.194;21.006;2023-08-20T02:11:19;15.38;;;11.65;;
22223;SDS011;11281;52.194;21.006;2023-08-20T02:15:21;17.98;;;11.32;;
22223;SDS011;11281;52.194;21.006;2023-08-20T02:19:23;15.70;;;10.90;;
22223;SDS011;11281;52.194;21.006;2023-08-20T02:23:25;16.55;;;10.82;;
22223;SDS011;11281;52.194;21.006;2023-08-20T02:27:27;16.08;;;10.52;;
22223;SDS011;11281;52.194;21.006;2023-08-20T02:31:29;15.43;;;10.77;;
22223;SDS011;11281;52.194;21.006;2023-08-20T02:35:31;13.98;;;10.40;;
22223;SDS011;11281;52.194;21.006;2023-08-20T02:39:33;16.35;;;11.10;;
22223;SDS011;11281;52.194;21.006;2023-08-20T02:43:35;17.02;;;11.18;;
22223;SDS011;11281;52.194;21.006;2023-08-20T02:47:37;16.08;;;10.75;;
22223;SDS011;11281;52.194;21.006;2023-08-20T02:51:39;13.55;;;10.07;;
22223;SDS011;11281;52.194;21.006;2023-08-20T02:55:43;14.75;;;9.93;;
22223;SDS011;11281;52.194;21.006;2023-08-20T02:59:45;13.55;;;10.05;;
22223;SDS011;11281;52.194;21.006;2023-08-20T03:03:47;13.20;;;10.02;;
22223;SDS011;11281;52.194;21.006;2023-08-20T03:07:48;14.52;;;9.85;;
22223;SDS011;11281;52.194;21.006;2023-08-20T03:11:50;13.82;;;9.95;;
22223;SDS011;11281;52.194;21.006;2023-08-20T03:15:52;14.00;;;9.25;;
22223;SDS011;11281;52.194;21.006;2023-08-20T03:19:55;15.35;;;10.77;;
22223;SDS011;11281;52.194;21.006;2023-08-20T03:24:00;17.55;;;11.07;;
22223;SDS011;11281;52.194;21.006;2023-08-20T03:28:03;14.63;;;10.93;;
22223;SDS011;11281;52.194;21.006;2023-08-20T03:32:05;16.50;;;10.88;;
22223;SDS011;11281;52.194;21.006;2023-08-20T03:36:06;15.98;;;10.48;;
22223;SDS011;11281;52.194;21.006;2023-08-20T03:40:08;15.68;;;10.20;;
22223;SDS011;11281;52.194;21.006;2023-08-20T03:44:11;14.15;;;10.13;;
22223;SDS011;11281;52.194;21.006;2023-08-20T03:48:13;14.00;;;9.70;;
22223;SDS011;11281;52.194;21.006;2023-08-20T03:52:15;16.55;;;10.45;;
22223;SDS011;11281;52.194;21.006;2023-08-20T03:56:17;15.38;;;9.25;;
22223;SDS011;11281;52.194;21.006;2023-08-20T04:00:18;14.40;;;9.80;;
22223;SDS011;11281;52.194;21.006;2023-08-20T04:04:20;13.77;;;10.27;;
22223;SDS011;11281;52.194;21.006;2023-08-20T04:08:22;13.45;;;9.20;;
22223;SDS011;11281;52.194;21.006;2023-08-20T04:12:23;15.07;;;10.52;;
22223;SDS011;11281;52.194;21.006;2023-08-20T04:16:25;14.15;;;10.02;;
22223;SDS011;11281;52.194;21.006;2023-08-20T04:20:27;14.38;;;9.80;;
22223;SDS011;11281;52.194;21.006;2023-08-20T04:24:29;13.85;;;10.38;;
22223;SDS011;11281;52.194;21.006;2023-08-20T04:28:31;19.02;;;10.48;;
22223;SDS011;11281;52.194;21.006;2023-08-20T04:32:33;15.27;;;11.15;;
22223;SDS011;11281;52.194;21.006;2023-08-20T04:36:35;16.75;;;10.30;;
22223;SDS011;11281;52.194;21.006;2023-08-20T04:40:37;15.85;;;11.35;;
22223;SDS011;11281;52.194;21.006;2023-08-20T04:44:39;13.30;;;10.48;;
22223;SDS011;11281;52.194;21.006;2023-08-20T04:48:41;15.45;;;10.80;;
22223;SDS011;11281;52.194;21.006;2023-08-20T04:52:43;14.57;;;10.18;;
22223;SDS011;11281;52.194;21.006;2023-08-20T04:56:45;13.82;;;10.25;;
22223;SDS011;11281;52.194;21.006;2023-08-20T05:00:46;17.80;;;11.90;;
22223;SDS011;11281;52.194;21.006;2023-08-20T05:04:48;16.13;;;11.63;;
22223;SDS011;11281;52.194;21.006;2023-08-20T05:08:50;16.52;;;11.98;;
22223;SDS011;11281;52.194;21.006;2023-08-20T05:12:52;18.00;;;12.25;;
22223;SDS011;11281;52.194;21.006;2023-08-20T05:16:54;18.70;;;12.68;;
22223;SDS011;11281;52.194;21.006;2023-08-20T05:20:56;17.00;;;12.40;;
22223;SDS011;11281;52.194;21.006;2023-08-20T05:24:58;18.92;;;13.23;;
22223;SDS011;11281;52.194;21.006;2023-08-20T05:29:00;22.50;;;13.57;;
22223;SDS011;11281;52.194;21.006;2023-08-20T05:33:02;19.80;;;13.77;;
22223;SDS011;11281;52.194;21.006;2023-08-20T05:37:04;20.77;;;13.45;;
22223;SDS011;11281;52.194;21.006;2023-08-20T05:41:06;22.67;;;13.60;;
22223;SDS011;11281;52.194;21.006;2023-08-20T05:45:08;18.08;;;13.18;;
22223;SDS011;11281;52.194;21.006;2023-08-20T05:49:10;17.42;;;13.00;;
22223;SDS011;11281;52.194;21.006;2023-08-20T05:53:16;18.77;;;12.93;;
22223;SDS011;11281;52.194;21.006;2023-08-20T05:57:18;17.85;;;13.15;;
22223;SDS011;11281;52.194;21.006;2023-08-20T06:01:20;16.92;;;12.48;;
22223;SDS011;11281;52.194;21.006;2023-08-20T06:05:22;18.00;;;12.85;;
22223;SDS011;11281;52.194;21.006;2023-08-20T06:09:24;16.73;;;12.32;;
22223;SDS011;11281;52.194;21.006;2023-08-20T06:13:26;19.70;;;13.57;;
22223;SDS011;11281;52.194;21.006;2023-08-20T06:17:27;18.63;;;14.52;;
22223;SDS011;11281;52.194;21.006;2023-08-20T06:21:29;17.13;;;13.50;;
22223;SDS011;11281;52.194;21.006;2023-08-20T06:25:31;20.55;;;14.40;;
22223;SDS011;11281;52.194;21.006;2023-08-20T06:29:33;19.95;;;14.23;;
22223;SDS011;11281;52.194;21.006;2023-08-20T06:33:35;20.75;;;15.20;;
22223;SDS011;11281;52.194;21.006;2023-08-20T06:37:38;23.98;;;14.23;;
22223;SDS011;11281;52.194;21.006;2023-08-20T06:41:41;19.00;;;12.90;;
22223;SDS011;11281;52.194;21.006;2023-08-20T06:45:43;16.88;;;11.73;;
22223;SDS011;11281;52.194;21.006;2023-08-20T06:49:45;18.48;;;11.35;;
22223;SDS011;11281;52.194;21.006;2023-08-20T06:53:47;13.52;;;10.45;;
22223;SDS011;11281;52.194;21.006;2023-08-20T06:57:50;16.88;;;11.43;;
22223;SDS011;11281;52.194;21.006;2023-08-20T07:01:51;14.82;;;10.90;;
22223;SDS011;11281;52.194;21.006;2023-08-20T07:05:53;14.85;;;10.18;;
22223;SDS011;11281;52.194;21.006;2023-08-20T07:09:55;13.43;;;10.25;;
22223;SDS011;11281;52.194;21.006;2023-08-20T07:13:57;13.25;;;11.20;;
22223;SDS011;11281;52.194;21.006;2023-08-20T07:17:58;13.70;;;10.95;;
22223;SDS011;11281;52.194;21.006;2023-08-20T07:22:00;14.07;;;11.18;;
22223;SDS011;11281;52.194;21.006;2023-08-20T07:26:08;15.63;;;11.25;;
22223;SDS011;11281;52.194;21.006;2023-08-20T07:30:13;13.60;;;9.98;;
22223;SDS011;11281;52.194;21.006;2023-08-20T07:34:14;14.82;;;10.70;;
22223;SDS011;11281;52.194;21.006;2023-08-20T07:38:16;12.68;;;10.52;;
22223;SDS011;11281;52.194;21.006;2023-08-20T07:42:18;13.45;;;10.30;;
22223;SDS011;11281;52.194;21.006;2023-08-20T07:46:20;13.35;;;10.55;;
22223;SDS011;11281;52.194;21.006;2023-08-20T07:50:22;13.88;;;10.02;;
22223;SDS011;11281;52.194;21.006;2023-08-20T07:54:23;13.10;;;9.80;;
22223;SDS011;11281;52.194;21.006;2023-08-20T07:58:25;14.93;;;9.93;;
22223;SDS011;11281;52.194;21.006;2023-08-20T08:02:27;12.75;;;10.07;;
22223;SDS011;11281;52.194;21.006;2023-08-20T08:06:28;12.70;;;10.07;;
22223;SDS011;11281;52.194;21.006;2023-08-20T08:10:30;10.27;;;8.60;;
22223;SDS011;11281;52.194;21.006;2023-08-20T08:14:32;15.30;;;9.30;;
22223;SDS011;11281;52.194;21.006;2023-08-20T08:18:34;11.50;;;8.90;;
22223;SDS011;11281;52.194;21.006;2023-08-20T08:22:36;11.30;;;9.20;;
22223;SDS011;11281;52.194;21.006;2023-08-20T08:26:38;12.27;;;9.23;;
22223;SDS011;11281;52.194;21.006;2023-08-20T08:30:39;11.57;;;8.52;;
22223;SDS011;11281;52.194;21.006;2023-08-20T08:34:41;12.60;;;8.68;;
22223;SDS011;11281;52.194;21.006;2023-08-20T08:38:44;11.48;;;9.07;;
22223;SDS011;11281;52.194;21.006;2023-08-20T08:42:47;15.07;;;9.82;;
22223;SDS011;11281;52.194;21.006;2023-08-20T08:46:52;12.27;;;8.52;;
22223;SDS011;11281;52.194;21.006;2023-08-20T08:50:54;9.98;;;8.43;;
22223;SDS011;11281;52.194;21.006;2023-08-20T08:54:56;11.00;;;8.60;;
22223;SDS011;11281;52.194;21.006;2023-08-20T08:59:16;12.05;;;8.95;;
22223;SDS011;11281;52.194;21.006;2023-08-20T09:03:22;15.27;;;8.60;;
22223;SDS011;11281;52.194;21.006;2023-08-20T09:07:24;11.35;;;8.35;;
22223;SDS011;11281;52.194;21.006;2023-08-20T09:11:33;9.20;;;7.50;;
22223;SDS011;11281;52.194;21.006;2023-08-20T09:15:36;9.93;;;8.05;;
22223;SDS011;11281;52.194;21.006;2023-08-20T09:19:38;11.77;;;8.38;;
22223;SDS011;11281;52.194;21.006;2023-08-20T09:23:40;11.57;;;8.93;;
22223;SDS011;11281;52.194;21.006;2023-08-20T09:27:46;11.73;;;8.88;;
22223;SDS011;11281;52.194;21.006;2023-08-20T09:31:47;11.07;;;8.88;;
22223;SDS011;11281;52.194;21.006;2023-08-20T09:35:50;11.23;;;8.70;;
22223;SDS011;11281;52.194;21.006;2023-08-20T09:39:52;9.80;;;7.80;;
22223;SDS011;11281;52.194;21.006;2023-08-20T09:43:57;11.60;;;8.32;;
22223;SDS011;11281;52.194;21.006;2023-08-20T09:48:00;12.15;;;8.98;;
22223;SDS011;11281;52.194;21.006;2023-08-20T09:52:05;11.52;;;8.68;;
22223;SDS011;11281;52.194;21.006;2023-08-20T09:56:12;10.30;;;8.38;;
22223;SDS011;11281;52.194;21.006;2023-08-20T10:00:24;9.48;;;8.05;;
22223;SDS011;11281;52.194;21.006;2023-08-20T10:04:26;9.93;;;8.02;;
22223;SDS011;11281;52.194;21.006;2023-08-20T10:08:28;11.52;;;8.07;;
22223;SDS011;11281;52.194;21.006;2023-08-20T10:12:30;8.48;;;7.43;;
22223;SDS011;11281;52.194;21.006;2023-08-20T10:16:33;9.70;;;7.50;;
22223;SDS011;11281;52.194;21.006;2023-08-20T10:20:35;9.07;;;7.85;;
22223;SDS011;11281;52.194;21.006;2023-08-20T10:24:40;9.80;;;6.70;;
22223;SDS011;11281;52.194;21.006;2023-08-20T10:28:45;9.32;;;7.43;;
22223;SDS011;11281;52.194;21.006;2023-08-20T10:32:48;48.78;;;18.73;;
22223;SDS011;11281;52.194;21.006;2023-08-20T10:36:50;13.18;;;8.43;;
22223;SDS011;11281;52.194;21.006;2023-08-20T10:40:54;8.82;;;7.47;;
22223;SDS011;11281;52.194;21.006;2023-08-20T10:45:07;11.30;;;8.05;;
22223;SDS011;11281;52.194;21.006;2023-08-20T10:49:10;10.10;;;7.55;;
22223;SDS011;11281;52.194;21.006;2023-08-20T10:57:22;9.32;;;7.43;;
22223;SDS011;11281;52.194;21.006;2023-08-20T11:01:35;11.07;;;7.45;;
22223;SDS011;11281;52.194;21.006;2023-08-20T11:05:37;9.38;;;7.45;;
22223;SDS011;11281;52.194;21.006;2023-08-20T11:09:38;9.13;;;7.80;;
22223;SDS011;11281;52.194;21.006;2023-08-20T11:13:41;8.60;;;7.32;;
22223;SDS011;11281;52.194;21.006;2023-08-20T11:17:47;9.23;;;7.13;;
22223;SDS011;11281;52.194;21.006;2023-08-20T11:21:49;7.88;;;6.28;;
22223;SDS011;11281;52.194;21.006;2023-08-20T11:25:51;9.18;;;6.97;;
22223;SDS011;11281;52.194;21.006;2023-08-20T11:29:53;9.00;;;6.90;;
22223;SDS011;11281;52.194;21.006;2023-08-20T11:33:57;8.40;;;6.20;;
22223;SDS011;11281;52.194;21.006;2023-08-20T11:37:59;6.75;;;6.05;;
22223;SDS011;11281;52.194;21.006;2023-08-20T11:42:01;9.20;;;6.80;;
22223;SDS011;11281;52.194;21.006;2023-08-20T11:46:03;8.15;;;6.88;;
22223;SDS011;11281;52.194;21.006;2023-08-20T11:50:05;8.10;;;6.95;;
22223;SDS011;11281;52.194;21.006;2023-08-20T11:54:09;8.93;;;6.47;;
22223;SDS011;11281;52.194;21.006;2023-08-20T11:58:13;7.55;;;6.15;;
22223;SDS011;11281;52.194;21.006;2023-08-20T12:02:15;9.15;;;6.35;;
22223;SDS011;11281;52.194;21.006;2023-08-20T12:06:17;8.88;;;6.55;;
22223;SDS011;11281;52.194;21.006;2023-08-20T12:10:20;10.30;;;6.13;;
22223;SDS011;11281;52.194;21.006;2023-08-20T12:14:23;7.95;;;6.68;;
22223;SDS011;11281;52.194;21.006;2023-08-20T12:18:26;7.68;;;6.68;;
22223;SDS011;11281;52.194;21.006;2023-08-20T12:22:27;8.15;;;7.05;;
22223;SDS011;11281;52.194;21.006;2023-08-20T12:26:29;8.10;;;6.45;;
22223;SDS011;11281;52.194;21.006;2023-08-20T12:30:31;8.40;;;6.15;;
22223;SDS011;11281;52.194;21.006;2023-08-20T12:34:34;7.97;;;6.88;;
22223;SDS011;11281;52.194;21.006;2023-08-20T12:38:36;8.65;;;6.30;;
22223;SDS011;11281;52.194;21.006;2023-08-20T12:42:38;10.77;;;7.20;;
22223;SDS011;11281;52.194;21.006;2023-08-20T12:46:40;8.77;;;7.35;;
22223;SDS011;11281;52.194;21.006;2023-08-20T12:50:41;9.23;;;7.43;;
22223;SDS011;11281;52.194;21.006;2023-08-20T12:54:43;8.65;;;7.00;;
22223;SDS011;11281;52.194;21.006;2023-08-20T12:58:45;11.05;;;7.32;;
22223;SDS011;11281;52.194;21.006;2023-08-20T13:02:47;7.53;;;5.35;;
22223;SDS011;11281;52.194;21.006;2023-08-20T13:06:49;6.53;;;5.82;;
22223;SDS011;11281;52.194;21.006;2023-08-20T13:10:55;7.38;;;6.63;;
22223;SDS011;11281;52.194;21.006;2023-08-20T13:14:59;7.35;;;5.85;;
22223;SDS011;11281;52.194;21.006;2023-08-20T13:19:01;7.57;;;5.82;;
22223;SDS011;11281;52.194;21.006;2023-08-20T13:23:03;6.85;;;6.15;;
22223;SDS011;11281;52.194;21.006;2023-08-20T13:27:05;8.82;;;5.90;;
22223;SDS011;11281;52.194;21.006;2023-08-20T13:31:06;8.68;;;6.32;;
22223;SDS011;11281;52.194;21.006;2023-08-20T13:35:08;7.35;;;6.28;;
22223;SDS011;11281;52.194;21.006;2023-08-20T13:39:10;7.65;;;6.68;;
22223;SDS011;11281;52.194;21.006;2023-08-20T13:43:14;6.65;;;5.78;;
22223;SDS011;11281;52.194;21.006;2023-08-20T13:47:16;6.95;;;6.25;;
22223;SDS011;11281;52.194;21.006;2023-08-20T13:51:18;9.20;;;6.53;;
22223;SDS011;11281;52.194;21.006;2023-08-20T13:55:20;9.63;;;7.30;;
22223;SDS011;11281;52.194;21.006;2023-08-20T13:59:22;10.00;;;6.70;;
22223;SDS011;11281;52.194;21.006;2023-08-20T14:03:24;8.02;;;6.30;;
22223;SDS011;11281;52.194;21.006;2023-08-20T14:07:26;8.35;;;6.95;;
22223;SDS011;11281;52.194;21.006;2023-08-20T14:11:28;9.20;;;7.05;;
22223;SDS011;11281;52.194;21.006;2023-08-20T14:15:30;8.75;;;6.15;;
22223;SDS011;11281;52.194;21.006;2023-08-20T14:19:32;9.20;;;6.53;;
22223;SDS011;11281;52.194;21.006;2023-08-20T14:23:34;8.73;;;6.32;;
22223;SDS011;11281;52.194;21.006;2023-08-20T14:27:35;8.63;;;6.93;;
22223;SDS011;11281;52.194;21.006;2023-08-20T14:31:37;9.13;;;7.15;;
22223;SDS011;11281;52.194;21.006;2023-08-20T14:35:39;10.20;;;7.22;;
22223;SDS011;11281;52.194;21.006;2023-08-20T14:39:40;7.80;;;6.88;;
22223;SDS011;11281;52.194;21.006;2023-08-20T14:43:42;8.45;;;6.68;;
22223;SDS011;11281;52.194;21.006;2023-08-20T14:47:46;9.48;;;7.00;;
22223;SDS011;11281;52.194;21.006;2023-08-20T14:51:48;8.75;;;7.22;;
22223;SDS011;11281;52.194;21.006;2023-08-20T14:55:50;8.27;;;7.43;;
22223;SDS011;11281;52.194;21.006;2023-08-20T14:59:52;9.13;;;7.38;;
22223;SDS011;11281;52.194;21.006;2023-08-20T15:03:53;10.55;;;8.40;;
22223;SDS011;11281;52.194;21.006;2023-08-20T15:07:55;10.50;;;8.40;;
22223;SDS011;11281;52.194;21.006;2023-08-20T15:11:56;11.13;;;8.35;;
22223;SDS011;11281;52.194;21.006;2023-08-20T15:15:58;10.38;;;8.23;;
22223;SDS011;11281;52.194;21.006;2023-08-20T15:19:59;9.52;;;8.20;;
22223;SDS011;11281;52.194;21.006;2023-08-20T15:24:01;10.85;;;8.18;;
22223;SDS011;11281;52.194;21.006;2023-08-20T15:28:04;12.95;;;8.18;;
22223;SDS011;11281;52.194;21.006;2023-08-20T15:32:06;9.35;;;7.85;;
22223;SDS011;11281;52.194;21.006;2023-08-20T15:36:07;12.07;;;8.63;;
22223;SDS011;11281;52.194;21.006;2023-08-20T15:40:09;12.60;;;8.55;;
22223;SDS011;11281;52.194;21.006;2023-08-20T15:44:14;12.02;;;8.82;;
22223;SDS011;11281;52.194;21.006;2023-08-20T15:48:16;10.93;;;9.00;;
22223;SDS011;11281;52.194;21.006;2023-08-20T15:52:18;11.85;;;8.85;;
22223;SDS011;11281;52.194;21.006;2023-08-20T15:56:20;12.43;;;9.85;;
22223;SDS011;11281;52.194;21.006;2023-08-20T16:00:22;13.90;;;10.30;;
22223;SDS011;11281;52.194;21.006;2023-08-20T16:04:24;11.77;;;9.68;;
22223;SDS011;11281;52.194;21.006;2023-08-20T16:08:26;13.68;;;10.68;;
22223;SDS011;11281;52.194;21.006;2023-08-20T16:12:27;15.00;;;10.93;;
22223;SDS011;11281;52.194;21.006;2023-08-20T16:16:29;14.23;;;10.65;;
22223;SDS011;11281;52.194;21.006;2023-08-20T16:20:32;14.10;;;11.02;;
22223;SDS011;11281;52.194;21.006;2023-08-20T16:24:35;15.85;;;11.68;;
22223;SDS011;11281;52.194;21.006;2023-08-20T16:28:37;15.70;;;12.07;;
22223;SDS011;11281;52.194;21.006;2023-08-20T16:32:41;14.90;;;11.60;;
22223;SDS011;11281;52.194;21.006;2023-08-20T16:36:44;16.67;;;11.57;;
22223;SDS011;11281;52.194;21.006;2023-08-20T16:40:46;15.35;;;11.15;;
22223;SDS011;11281;52.194;21.006;2023-08-20T16:44:48;16.58;;;12.05;;
22223;SDS011;11281;52.194;21.006;2023-08-20T16:48:50;14.20;;;11.23;;
22223;SDS011;11281;52.194;21.006;2023-08-20T16:52:52;14.75;;;11.35;;
22223;SDS011;11281;52.194;21.006;2023-08-20T16:56:53;15.32;;;11.85;;
22223;SDS011;11281;52.194;21.006;2023-08-20T17:00:55;14.13;;;11.27;;
22223;SDS011;11281;52.194;21.006;2023-08-20T17:04:57;12.82;;;10.88;;
22223;SDS011;11281;52.194;21.006;2023-08-20T17:08:59;15.43;;;11.15;;
22223;SDS011;11281;52.194;21.006;2023-08-20T17:13:01;13.38;;;10.55;;
22223;SDS011;11281;52.194;21.006;2023-08-20T17:17:03;19.48;;;13.45;;
22223;SDS011;11281;52.194;21.006;2023-08-20T17:21:04;20.55;;;14.77;;
22223;SDS011;11281;52.194;21.006;2023-08-20T17:25:06;18.70;;;13.52;;
22223;SDS011;11281;52.194;21.006;2023-08-20T17:29:08;17.98;;;12.30;;
22223;SDS011;11281;52.194;21.006;2023-08-20T17:33:09;17.52;;;13.32;;
22223;SDS011;11281;52.194;21.006;2023-08-20T17:37:16;19.30;;;12.40;;
22223;SDS011;11281;52.194;21.006;2023-08-20T17:41:18;14.70;;;11.63;;
22223;SDS011;11281;52.194;21.006;2023-08-20T17:45:20;19.65;;;11.93;;
22223;SDS011;11281;52.194;21.006;2023-08-20T17:49:21;15.98;;;12.30;;
22223;SDS011;11281;52.194;21.006;2023-08-20T17:53:23;17.35;;;11.98;;
22223;SDS011;11281;52.194;21.006;2023-08-20T17:57:29;14.57;;;11.25;;
22223;SDS011;11281;52.194;21.006;2023-08-20T18:01:31;15.10;;;10.68;;
22223;SDS011;11281;52.194;21.006;2023-08-20T18:05:36;15.93;;;11.13;;
22223;SDS011;11281;52.194;21.006;2023-08-20T18:09:38;18.20;;;12.45;;
22223;SDS011;11281;52.194;21.006;2023-08-20T18:13:40;19.42;;;12.85;;
22223;SDS011;11281;52.194;21.006;2023-08-20T18:17:41;21.67;;;13.18;;
22223;SDS011;11281;52.194;21.006;2023-08-20T18:21:43;21.85;;;12.27;;
22223;SDS011;11281;52.194;21.006;2023-08-20T18:25:45;17.27;;;11.82;;
22223;SDS011;11281;52.194;21.006;2023-08-20T18:29:50;19.67;;;13.13;;
22223;SDS011;11281;52.194;21.006;2023-08-20T18:33:51;19.33;;;12.52;;
22223;SDS011;11281;52.194;21.006;2023-08-20T18:37:54;17.55;;;11.57;;
22223;SDS011;11281;52.194;21.006;2023-08-20T18:41:55;16.40;;;11.43;;
22223;SDS011;11281;52.194;21.006;2023-08-20T18:45:57;14.23;;;11.85;;
22223;SDS011;11281;52.194;21.006;2023-08-20T18:50:01;17.40;;;11.23;;
22223;SDS011;11281;52.194;21.006;2023-08-20T18:54:06;19.73;;;12.50;;
22223;SDS011;11281;52.194;21.006;2023-08-20T18:58:18;16.25;;;10.70;;
22223;SDS011;11281;52.194;21.006;2023-08-20T19:02:23;14.35;;;10.55;;
22223;SDS011;11281;52.194;21.006;2023-08-20T19:06:26;15.02;;;10.63;;
22223;SDS011;11281;52.194;21.006;2023-08-20T19:10:30;13.23;;;10.48;;
22223;SDS011;11281;52.194;21.006;2023-08-20T19:14:34;16.42;;;11.00;;
22223;SDS011;11281;52.194;21.006;2023-08-20T19:19:29;14.07;;;10.00;;
22223;SDS011;11281;52.194;21.006;2023-08-20T19:23:43;13.73;;;10.35;;
22223;SDS011;11281;52.194;21.006;2023-08-20T19:28:14;17.73;;;11.82;;
22223;SDS011;11281;52.194;21.006;2023-08-20T19:32:46;12.60;;;9.98;;
22223;SDS011;11281;52.194;21.006;2023-08-20T19:36:56;13.50;;;10.15;;
22223;SDS011;11281;52.194;21.006;2023-08-20T19:41:31;16.33;;;10.82;;
22223;SDS011;11281;52.194;21.006;2023-08-20T19:50:48;16.67;;;10.93;;
22223;SDS011;11281;52.194;21.006;2023-08-20T20:04:44;14.15;;;10.60;;
22223;SDS011;11281;52.194;21.006;2023-08-20T20:09:33;16.20;;;10.95;;
22223;SDS011;11281;52.194;21.006;2023-08-20T20:13:35;15.20;;;10.05;;
22223;SDS011;11281;52.194;21.006;2023-08-20T20:17:36;13.85;;;9.95;;
22223;SDS011;11281;52.194;21.006;2023-08-20T20:21:38;13.50;;;10.50;;
22223;SDS011;11281;52.194;21.006;2023-08-20T20:25:41;15.88;;;10.32;;
22223;SDS011;11281;52.194;21.006;2023-08-20T20:29:43;15.02;;;10.50;;
22223;SDS011;11281;52.194;21.006;2023-08-20T20:33:44;14.13;;;10.95;;
22223;SDS011;11281;52.194;21.006;2023-08-20T20:37:49;14.38;;;10.55;;
22223;SDS011;11281;52.194;21.006;2023-08-20T20:41:53;17.23;;;11.07;;
22223;SDS011;11281;52.194;21.006;2023-08-20T20:45:54;17.45;;;10.70;;
22223;SDS011;11281;52.194;21.006;2023-08-20T20:49:57;13.52;;;10.00;;
22223;SDS011;11281;52.194;21.006;2023-08-20T20:54:00;15.52;;;10.63;;
22223;SDS011;11281;52.194;21.006;2023-08-20T20:58:02;13.60;;;9.90;;
22223;SDS011;11281;52.194;21.006;2023-08-20T21:02:07;16.55;;;10.82;;
22223;SDS011;11281;52.194;21.006;2023-08-20T21:06:10;16.23;;;10.60;;
22223;SDS011;11281;52.194;21.006;2023-08-20T21:10:12;16.23;;;10.80;;
22223;SDS011;11281;52.194;21.006;2023-08-20T21:14:14;18.02;;;10.80;;
22223;SDS011;11281;52.194;21.006;2023-08-20T21:18:19;16.02;;;10.52;;
22223;SDS011;11281;52.194;21.006;2023-08-20T21:22:28;13.95;;;10.45;;
22223;SDS011;11281;52.194;21.006;2023-08-20T21:26:29;14.70;;;10.10;;
22223;SDS011;11281;52.194;21.006;2023-08-20T21:30:33;14.45;;;10.13;;
22223;SDS011;11281;52.194;21.006;2023-08-20T21:34:37;14.52;;;10.38;;
22223;SDS011;11281;52.194;21.006;2023-08-20T21:38:42;15.80;;;10.35;;
22223;SDS011;11281;52.194;21.006;2023-08-20T21:42:43;15.45;;;10.95;;
22223;SDS011;11281;52.194;21.006;2023-08-20T21:46:45;13.75;;;10.23;;
22223;SDS011;11281;52.194;21.006;2023-08-20T21:50:47;13.45;;;9.95;;
22223;SDS011;11281;52.194;21.006;2023-08-20T21:54:49;13.80;;;10.18;;
22223;SDS011;11281;52.194;21.006;2023-08-20T21:58:53;14.20;;;10.85;;
22223;SDS011;11281;52.194;21.006;2023-08-20T22:02:54;14.43;;;10.75;;
22223;SDS011;11281;52.194;21.006;2023-08-20T22:06:57;16.83;;;10.73;;
22223;SDS011;11281;52.194;21.006;2023-08-20T22:10:59;14.57;;;10.55;;
22223;SDS011;11281;52.194;21.006;2023-08-20T22:15:01;14.38;;;10.05;;
22223;SDS011;11281;52.194;21.006;2023-08-20T22:19:03;15.48;;;10.05;;
22223;SDS011;11281;52.194;21.006;2023-08-20T22:23:05;16.65;;;10.85;;
22223;SDS011;11281;52.194;21.006;2023-08-20T22:27:06;17.35;;;11.80;;
22223;SDS011;11281;52.194;21.006;2023-08-20T22:31:08;13.70;;;10.45;;
22223;SDS011;11281;52.194;21.006;2023-08-20T22:35:10;14.10;;;10.60;;
22223;SDS011;11281;52.194;21.006;2023-08-20T22:39:12;14.60;;;9.63;;
22223;SDS011;11281;52.194;21.006;2023-08-20T22:43:14;14.93;;;10.50;;
22223;SDS011;11281;52.194;21.006;2023-08-20T22:47:17;16.33;;;10.32;;
22223;SDS011;11281;52.194;21.006;2023-08-20T22:51:18;17.80;;;12.30;;
22223;SDS011;11281;52.194;21.006;2023-08-20T22:55:20;19.58;;;11.85;;
22223;SDS011;11281;52.194;21.006;2023-08-20T22:59:21;17.23;;;12.05;;
22223;SDS011;11281;52.194;21.006;2023-08-20T23:03:23;18.15;;;11.98;;
22223;SDS011;11281;52.194;21.006;2023-08-20T23:07:25;15.38;;;10.23;;
22223;SDS011;11281;52.194;21.006;2023-08-20T23:11:27;17.45;;;11.90;;
22223;SDS011;11281;52.194;21.006;2023-08-20T23:15:30;17.23;;;11.40;;
22223;SDS011;11281;52.194;21.006;2023-08-20T23:19:31;17.27;;;11.60;;
22223;SDS011;11281;52.194;21.006;2023-08-20T23:23:33;17.52;;;11.85;;
22223;SDS011;11281;52.194;21.006;2023-08-20T23:27:35;16.52;;;11.00;;
22223;SDS011;11281;52.194;21.006;2023-08-20T23:31:37;15.25;;;11.07;;
22223;SDS011;11281;52.194;21.006;2023-08-20T23:35:39;16.52;;;11.45;;
22223;SDS011;11281;52.194;21.006;2023-08-20T23:39:43;15.82;;;11.25;;
22223;SDS011;11281;52.194;21.006;2023-08-20T23:43:45;15.85;;;10.82;;
22223;SDS011;11281;52.194;21.006;2023-08-20T23:47:47;17.00;;;11.45;;
22223;SDS011;11281;52.194;21.006;2023-08-20T23:51:48;16.42;;;11.13;;
22223;SDS011;11281;52.194;21.006;2023-08-20T23:55:50;17.23;;;12.10;;
22223;SDS011;11281;52.194;21.006;2023-08-20T23:59:52;14.93;;;11.18;;
